Pagrindinis puslapis
METAR-TAF:

METAR-TAF

Oro uostai :

Saporas, Japonija

platuma: 43-07N, ilguma: 141-23E, Aukštis: 8 m

Dabartinis oras

Ataskaita buvo paskelbta 26 minutes, ne 03:00 UTC
Vėjas 4 kt iš Vakarų/Šiaurės Vakarų
Temperatūra 0°C
Drėgmė 93%
Slėgis 1007 hPa
Matomumas: 4000 m
Mažai debesys ne aukštis 500 ft
Išsisklaidę debesys ne aukštis 2000 ft
Su prošvaistėmis ne aukštis 4000 ft
sniegas

METAR: RJCO 200300Z 30004KT 4000 -SHSN FEW005 SCT020 BKN040 M00/M01 Q1007

Laikas: 12:26 (03:26 UTC)


TAF: trūkstamas

Orai ataskaitas ir orų prognozės (METAR, TAF).

turimą stotys yra geltonos ir raudonos taškus žemėlapyje.

Perkelti pele per norėdami pamatyti stoties vardą.

Tada spustelėkite, norėdami matyti oro stebėjimo ir prognozės.

Norėdami pakeisti žemėlapį: spustelėkite ant žalios mygtukų su juodo kryžiaus žemyn,; žalią mygtuką su brūkšneliu, jei norite nutolinti; arba žalių rodyklių gretimoms žemėlapius.


METAR-TAF: